createdAt,value
2023-03-29T00:00:31.477Z,55.64
2023-03-29T00:02:59.526Z,54.79
2023-03-29T00:05:26.456Z,55.06
2023-03-29T00:08:01.862Z,55.60
2023-03-29T00:10:28.490Z,56.35
2023-03-29T00:12:55.065Z,56.15
2023-03-29T00:15:21.814Z,55.50
2023-03-29T00:17:48.495Z,56.70
2023-03-29T00:20:17.458Z,55.63
2023-03-29T00:22:46.703Z,55.42
2023-03-29T00:25:13.538Z,54.83
2023-03-29T00:27:40.634Z,55.03
2023-03-29T00:30:09.052Z,54.60
2023-03-29T00:32:35.986Z,55.13
2023-03-29T00:35:05.125Z,54.48
2023-03-29T00:37:31.915Z,54.53
2023-03-29T00:39:58.624Z,55.25
2023-03-29T00:42:26.142Z,54.60
2023-03-29T00:45:07.385Z,54.91
2023-03-29T00:47:39.436Z,54.16
2023-03-29T00:50:16.892Z,54.08
2023-03-29T00:52:52.170Z,54.37
2023-03-29T00:55:21.793Z,54.23
2023-03-29T00:57:49.355Z,52.86
2023-03-29T01:00:21.006Z,53.01
2023-03-29T01:02:54.240Z,53.55
2023-03-29T01:05:24.334Z,53.25
2023-03-29T01:07:58.514Z,53.68
2023-03-29T01:10:35.169Z,54.07
2023-03-29T01:13:09.542Z,54.42
2023-03-29T01:15:38.481Z,54.69
2023-03-29T01:18:06.593Z,54.62
2023-03-29T01:21:04.944Z,54.23
2023-03-29T01:23:38.535Z,53.31
2023-03-29T01:26:31.261Z,54.34
2023-03-29T01:29:04.833Z,55.17
2023-03-29T01:31:34.076Z,54.78
2023-03-29T01:34:20.156Z,54.36
2023-03-29T01:36:51.272Z,54.42
2023-03-29T01:39:19.064Z,54.23
2023-03-29T01:41:52.073Z,54.74
2023-03-29T01:44:33.738Z,54.64
2023-03-29T01:47:19.045Z,54.71
2023-03-29T01:49:52.194Z,54.99
2023-03-29T01:52:24.540Z,54.05
2023-03-29T01:54:58.549Z,53.70
2023-03-29T01:57:27.326Z,54.02
2023-03-29T01:59:55.936Z,54.49
2023-03-29T02:02:26.376Z,54.86
2023-03-29T02:04:56.663Z,54.31
2023-03-29T02:07:26.856Z,53.51
2023-03-29T02:09:54.313Z,54.40
2023-03-29T02:12:21.886Z,54.55
2023-03-29T02:14:48.582Z,53.69
2023-03-29T02:17:19.745Z,53.41
2023-03-29T02:19:51.670Z,53.53
2023-03-29T02:22:22.883Z,52.43
2023-03-29T02:24:51.060Z,53.21
2023-03-29T02:27:19.473Z,53.26
2023-03-29T02:29:47.838Z,53.48
2023-03-29T02:32:27.480Z,53.71
2023-03-29T02:34:59.151Z,53.61
2023-03-29T02:37:30.688Z,53.78
2023-03-29T02:39:58.890Z,53.55
2023-03-29T02:42:25.914Z,54.43
2023-03-29T02:44:54.988Z,53.89
2023-03-29T02:47:24.969Z,53.88
2023-03-29T02:49:51.732Z,53.35
2023-03-29T02:52:22.317Z,52.63
2023-03-29T02:54:51.325Z,53.13
2023-03-29T02:57:18.031Z,53.14
2023-03-29T02:59:45.054Z,53.59
2023-03-29T03:02:11.944Z,53.19
2023-03-29T03:04:41.178Z,53.56
2023-03-29T03:07:07.901Z,53.44
2023-03-29T03:09:35.556Z,53.01
2023-03-29T03:12:02.401Z,52.43
2023-03-29T03:14:29.564Z,52.94
2023-03-29T03:16:57.986Z,52.06
2023-03-29T03:19:24.952Z,52.48
2023-03-29T03:21:52.740Z,52.64
2023-03-29T03:24:20.693Z,53.38
2023-03-29T03:26:49.680Z,52.67
2023-03-29T03:29:17.945Z,52.67
2023-03-29T03:31:59.479Z,53.12
2023-03-29T03:34:46.167Z,53.12
2023-03-29T03:37:12.855Z,53.28
2023-03-29T03:39:39.854Z,52.44
2023-03-29T03:42:08.684Z,52.50
2023-03-29T03:44:40.052Z,52.60
2023-03-29T03:47:37.607Z,52.94
2023-03-29T03:50:18.746Z,53.29
2023-03-29T03:52:45.571Z,53.60
2023-03-29T03:55:12.413Z,52.58
2023-03-29T03:58:02.026Z,52.69
2023-03-29T04:00:30.157Z,52.84
2023-03-29T04:03:24.096Z,53.17
2023-03-29T04:05:53.264Z,53.51
2023-03-29T04:08:23.981Z,53.46
2023-03-29T04:11:22.691Z,54.97
2023-03-29T04:13:51.152Z,53.95
2023-03-29T04:16:36.897Z,54.57
2023-03-29T04:19:19.611Z,54.09
2023-03-29T04:21:51.266Z,54.43
2023-03-29T04:24:18.190Z,55.63
2023-03-29T04:27:00.452Z,55.34
2023-03-29T04:29:27.689Z,55.98
2023-03-29T04:32:04.666Z,55.54
2023-03-29T04:34:43.730Z,56.50
2023-03-29T04:37:31.407Z,56.45
2023-03-29T04:40:00.392Z,57.38
2023-03-29T04:42:30.129Z,56.87
2023-03-29T04:44:57.534Z,57.53
2023-03-29T04:47:39.781Z,57.97
2023-03-29T04:50:21.638Z,57.80
2023-03-29T04:52:50.794Z,58.54
2023-03-29T04:55:17.618Z,58.68
2023-03-29T04:57:53.995Z,59.85
2023-03-29T05:00:40.393Z,60.08
2023-03-29T05:03:10.171Z,60.09
2023-03-29T05:05:42.419Z,59.78
2023-03-29T05:08:10.738Z,59.39
2023-03-29T05:10:57.713Z,59.43
2023-03-29T05:13:44.432Z,59.83
2023-03-29T05:16:11.384Z,60.03
2023-03-29T05:18:58.914Z,60.24
2023-03-29T05:21:28.400Z,58.82
2023-03-29T05:23:58.179Z,59.53
2023-03-29T05:26:30.882Z,59.22
2023-03-29T05:28:57.745Z,60.23
2023-03-29T05:31:25.478Z,60.09
2023-03-29T05:33:54.811Z,61.39
2023-03-29T05:36:23.450Z,60.97
2023-03-29T05:38:51.069Z,60.42
2023-03-29T05:41:20.189Z,60.77
2023-03-29T05:44:06.344Z,62.04
2023-03-29T05:46:33.433Z,62.13
2023-03-29T05:49:02.800Z,63.85
2023-03-29T05:51:48.626Z,64.51
2023-03-29T05:54:15.342Z,64.65
2023-03-29T05:56:42.432Z,62.95
2023-03-29T05:59:09.422Z,62.54
2023-03-29T06:01:36.750Z,62.49
2023-03-29T06:04:07.053Z,62.29
2023-03-29T06:06:43.106Z,62.18
2023-03-29T06:09:10.564Z,62.80
2023-03-29T06:11:41.830Z,63.12
2023-03-29T06:14:24.918Z,63.42
2023-03-29T06:17:01.837Z,61.83
2023-03-29T06:19:29.301Z,61.26
2023-03-29T06:21:56.210Z,61.36
2023-03-29T06:24:28.260Z,61.67
2023-03-29T06:27:01.663Z,61.42
2023-03-29T06:29:29.687Z,61.45
2023-03-29T06:31:57.249Z,62.32
2023-03-29T06:34:42.847Z,61.99
2023-03-29T06:37:27.778Z,60.87
2023-03-29T06:40:13.510Z,61.49
2023-03-29T06:42:45.999Z,61.25
2023-03-29T06:45:37.752Z,61.12
2023-03-29T06:48:10.779Z,60.79
2023-03-29T06:50:37.712Z,60.67
2023-03-29T06:53:11.667Z,61.09
2023-03-29T06:55:39.854Z,59.48
2023-03-29T06:58:31.764Z,60.02
2023-03-29T07:01:11.643Z,59.58
2023-03-29T07:03:50.728Z,59.84
2023-03-29T07:06:24.310Z,61.04
2023-03-29T07:08:52.624Z,60.70
2023-03-29T07:11:51.524Z,61.60
2023-03-29T07:14:30.131Z,60.90
2023-03-29T07:16:58.503Z,60.32
2023-03-29T07:19:33.236Z,60.32
2023-03-29T07:22:11.306Z,60.52
2023-03-29T07:24:49.391Z,60.79
2023-03-29T07:27:19.963Z,60.03
2023-03-29T07:29:52.079Z,60.61
2023-03-29T07:32:19.519Z,60.20
2023-03-29T07:34:59.503Z,61.35
2023-03-29T07:37:34.413Z,61.78
2023-03-29T07:40:03.456Z,62.08
2023-03-29T07:42:43.985Z,61.60
2023-03-29T07:45:16.925Z,61.68
2023-03-29T07:47:57.921Z,61.77
2023-03-29T07:50:32.717Z,60.77
2023-03-29T07:53:03.026Z,60.53
2023-03-29T07:58:31.165Z,60.18
2023-03-29T08:01:00.228Z,59.66
2023-03-29T08:03:50.088Z,58.57
2023-03-29T08:06:17.182Z,58.71
2023-03-29T08:08:44.223Z,58.49
2023-03-29T08:11:15.330Z,57.30
2023-03-29T08:13:56.607Z,57.33
2023-03-29T08:16:26.538Z,57.70
2023-03-29T08:19:02.806Z,57.70
2023-03-29T08:21:45.614Z,57.70
2023-03-29T08:24:12.698Z,57.49
2023-03-29T08:26:48.977Z,57.76
2023-03-29T08:29:18.778Z,57.69
2023-03-29T08:31:46.331Z,56.90
2023-03-29T08:34:16.309Z,55.78
2023-03-29T08:37:00.584Z,55.04
2023-03-29T08:39:36.657Z,54.17
2023-03-29T08:42:40.531Z,54.93
2023-03-29T08:45:26.910Z,54.37
2023-03-29T08:48:16.386Z,54.97
2023-03-29T08:51:03.999Z,54.74
2023-03-29T08:53:33.993Z,53.84
2023-03-29T08:56:12.814Z,53.23
2023-03-29T08:59:02.436Z,53.48
2023-03-29T09:01:35.496Z,53.21
2023-03-29T09:04:14.930Z,52.68
2023-03-29T09:07:09.132Z,53.46
2023-03-29T09:09:42.244Z,53.52
2023-03-29T09:12:49.184Z,53.70
2023-03-29T09:15:22.051Z,54.04
2023-03-29T09:18:06.454Z,53.03
2023-03-29T09:20:39.319Z,52.25
2023-03-29T09:23:12.454Z,53.27
2023-03-29T09:26:11.401Z,53.05
2023-03-29T09:28:58.084Z,53.50
2023-03-29T09:31:27.415Z,53.25
2023-03-29T09:34:20.323Z,52.94
2023-03-29T09:37:10.751Z,53.54
2023-03-29T09:39:40.211Z,53.27
2023-03-29T09:42:14.153Z,52.69
2023-03-29T09:44:49.010Z,52.82
2023-03-29T09:47:25.973Z,52.86
2023-03-29T09:49:57.662Z,52.14
2023-03-29T09:52:24.944Z,51.93
2023-03-29T09:55:03.824Z,51.75
2023-03-29T09:58:06.033Z,51.81
2023-03-29T10:00:39.264Z,50.00
2023-03-29T10:03:07.459Z,49.66
2023-03-29T10:05:46.468Z,48.45
2023-03-29T10:08:22.787Z,48.25
2023-03-29T10:10:51.147Z,49.18
2023-03-29T10:13:25.112Z,49.46
2023-03-29T10:16:05.125Z,48.50
2023-03-29T10:18:32.749Z,46.61
2023-03-29T10:21:01.265Z,45.62
2023-03-29T10:23:36.494Z,46.88
2023-03-29T10:26:04.733Z,45.94
2023-03-29T10:28:32.444Z,46.05
2023-03-29T10:31:04.114Z,47.19
2023-03-29T10:33:33.004Z,47.96
2023-03-29T10:36:01.582Z,46.54
2023-03-29T10:38:29.503Z,45.93
2023-03-29T10:41:03.000Z,46.33
2023-03-29T10:43:35.565Z,46.39
2023-03-29T10:46:23.239Z,47.74
2023-03-29T10:48:51.235Z,48.64
2023-03-29T10:51:18.843Z,49.38
2023-03-29T10:53:45.858Z,47.29
2023-03-29T10:56:18.604Z,47.82
2023-03-29T10:59:11.438Z,48.20
2023-03-29T11:01:59.515Z,48.03
2023-03-29T11:04:44.852Z,47.15
2023-03-29T11:07:30.637Z,47.72
2023-03-29T11:10:09.801Z,47.76
2023-03-29T11:12:55.196Z,47.70
2023-03-29T11:15:41.042Z,49.27
2023-03-29T11:18:07.820Z,49.85
2023-03-29T11:20:34.411Z,50.04
2023-03-29T11:23:01.236Z,50.18
2023-03-29T11:25:33.978Z,50.32
2023-03-29T11:28:19.142Z,49.67
2023-03-29T11:30:46.088Z,50.63
2023-03-29T11:33:19.140Z,49.54
2023-03-29T11:35:53.402Z,48.02
2023-03-29T11:38:38.459Z,47.26
2023-03-29T11:41:11.951Z,46.04
2023-03-29T11:43:42.828Z,43.47
2023-03-29T11:46:17.003Z,43.17
2023-03-29T11:48:50.295Z,43.58
2023-03-29T11:51:23.529Z,45.07
2023-03-29T11:53:57.099Z,43.95
2023-03-29T11:56:30.631Z,44.42
2023-03-29T11:59:17.647Z,45.45
2023-03-29T12:01:56.541Z,46.22
2023-03-29T12:04:30.192Z,47.44
2023-03-29T12:07:14.275Z,46.01
2023-03-29T12:09:56.266Z,43.29
2023-03-29T12:12:28.221Z,46.93
2023-03-29T12:15:01.229Z,47.75
2023-03-29T12:17:32.712Z,47.37
2023-03-29T12:20:11.315Z,48.90
2023-03-29T12:22:41.479Z,48.63
2023-03-29T12:25:13.960Z,47.81
2023-03-29T12:28:03.394Z,48.54
2023-03-29T12:30:34.215Z,48.08
2023-03-29T12:33:07.404Z,48.00
2023-03-29T12:35:53.306Z,47.68
2023-03-29T12:38:41.303Z,46.38
2023-03-29T12:41:36.137Z,46.39
2023-03-29T12:44:23.650Z,47.66
2023-03-29T12:47:01.532Z,47.91
2023-03-29T12:49:36.071Z,48.23
2023-03-29T12:52:08.365Z,49.25
2023-03-29T12:54:37.298Z,49.68
2023-03-29T12:57:21.729Z,50.87
2023-03-29T12:59:52.596Z,50.22
2023-03-29T13:02:23.169Z,50.43
2023-03-29T13:04:52.214Z,50.87
2023-03-29T13:07:22.654Z,51.44
2023-03-29T13:10:07.839Z,51.15
2023-03-29T13:12:43.429Z,51.33
2023-03-29T13:15:21.555Z,51.40
2023-03-29T13:18:07.087Z,52.03
2023-03-29T13:20:53.122Z,50.84
2023-03-29T13:23:35.112Z,49.35
2023-03-29T13:26:13.332Z,49.31
2023-03-29T13:28:58.386Z,48.79
2023-03-29T13:31:44.452Z,48.70
2023-03-29T13:34:24.335Z,49.51
2023-03-29T13:36:52.360Z,48.51
2023-03-29T13:39:23.767Z,48.20
2023-03-29T13:41:51.719Z,46.50
2023-03-29T13:44:43.610Z,46.82
2023-03-29T13:47:21.975Z,48.25
2023-03-29T13:49:52.442Z,49.78
2023-03-29T13:52:22.546Z,46.91
2023-03-29T13:54:58.085Z,47.41
2023-03-29T13:57:30.144Z,45.50
2023-03-29T13:59:59.426Z,46.13
2023-03-29T14:02:37.863Z,46.67
2023-03-29T14:05:14.453Z,46.02
2023-03-29T14:07:43.914Z,48.88
2023-03-29T14:10:19.144Z,49.67
2023-03-29T14:12:46.134Z,51.58
2023-03-29T14:15:26.867Z,52.78
2023-03-29T14:18:00.315Z,51.50
2023-03-29T14:20:34.241Z,50.64
2023-03-29T14:23:01.110Z,49.79
2023-03-29T14:25:29.221Z,50.39
2023-03-29T14:27:55.891Z,50.90
2023-03-29T14:30:25.367Z,51.51
2023-03-29T14:32:53.984Z,52.12
2023-03-29T14:35:29.354Z,52.75
2023-03-29T14:37:56.521Z,52.97
2023-03-29T14:40:23.723Z,52.69
2023-03-29T14:42:51.262Z,53.79
2023-03-29T14:45:20.946Z,55.09
2023-03-29T14:47:47.801Z,54.82
2023-03-29T14:50:31.135Z,55.22
2023-03-29T14:52:58.466Z,55.34
2023-03-29T14:55:25.344Z,55.84
2023-03-29T14:57:54.563Z,57.45
2023-03-29T15:00:26.112Z,59.03
2023-03-29T15:03:00.031Z,60.49
2023-03-29T15:05:29.889Z,62.66
2023-03-29T15:07:56.652Z,62.79
2023-03-29T15:10:23.753Z,62.95
2023-03-29T15:12:51.082Z,63.56
2023-03-29T15:15:18.023Z,65.01
2023-03-29T15:17:52.137Z,64.85
2023-03-29T15:20:23.276Z,65.74
2023-03-29T15:22:54.331Z,67.63
2023-03-29T15:25:21.239Z,69.26
2023-03-29T15:27:53.344Z,69.80
2023-03-29T15:30:20.157Z,71.58
2023-03-29T15:32:46.865Z,72.36
2023-03-29T15:35:40.590Z,71.83
2023-03-29T15:38:07.305Z,71.69
2023-03-29T15:40:36.018Z,71.61
2023-03-29T15:43:02.671Z,71.37
2023-03-29T15:45:29.431Z,70.86
2023-03-29T15:47:56.955Z,72.28
2023-03-29T15:50:23.726Z,71.80
2023-03-29T15:52:50.874Z,70.38
2023-03-29T15:55:20.826Z,69.60
2023-03-29T15:57:55.643Z,68.97
2023-03-29T16:00:23.098Z,68.13
2023-03-29T16:02:53.196Z,68.33
2023-03-29T16:05:19.828Z,68.16
2023-03-29T16:07:46.339Z,67.79
2023-03-29T16:10:16.179Z,67.59
2023-03-29T16:12:42.746Z,67.53
2023-03-29T16:15:12.484Z,67.35
2023-03-29T16:17:39.150Z,67.42
2023-03-29T16:20:07.294Z,67.39
2023-03-29T16:22:33.949Z,67.25
2023-03-29T16:25:00.564Z,66.24
2023-03-29T16:27:27.144Z,66.21
2023-03-29T16:29:53.699Z,65.79
2023-03-29T16:32:20.553Z,66.36
2023-03-29T16:34:47.310Z,65.36
2023-03-29T16:37:14.024Z,65.06
2023-03-29T16:39:43.667Z,64.73
2023-03-29T16:42:11.326Z,65.85
2023-03-29T16:44:37.949Z,65.63
2023-03-29T16:47:04.920Z,66.60
2023-03-29T16:49:31.599Z,66.76
2023-03-29T16:51:59.797Z,66.33
2023-03-29T16:54:29.688Z,66.41
2023-03-29T16:56:56.431Z,65.71
2023-03-29T16:59:23.080Z,65.62
2023-03-29T17:01:49.943Z,65.69
2023-03-29T17:04:16.547Z,66.68
2023-03-29T17:06:43.219Z,67.67
2023-03-29T17:09:12.719Z,67.10
2023-03-29T17:11:41.889Z,66.99
2023-03-29T17:14:08.503Z,66.78
2023-03-29T17:16:35.158Z,67.05
2023-03-29T17:19:01.913Z,67.08
2023-03-29T17:21:29.674Z,67.18
2023-03-29T17:23:56.342Z,66.73
2023-03-29T17:26:22.921Z,67.08
2023-03-29T17:28:49.577Z,67.19
2023-03-29T17:31:17.057Z,67.22
2023-03-29T17:33:43.624Z,67.43
2023-03-29T17:36:10.670Z,67.32
2023-03-29T17:38:38.106Z,67.29
2023-03-29T17:41:04.902Z,67.21
2023-03-29T17:43:31.931Z,67.28
2023-03-29T17:45:58.646Z,66.79
2023-03-29T17:48:25.693Z,67.27
2023-03-29T17:50:54.578Z,68.21
2023-03-29T17:53:21.621Z,67.21
2023-03-29T17:55:48.239Z,67.29
2023-03-29T17:58:14.855Z,66.67
2023-03-29T18:00:41.490Z,66.48
2023-03-29T18:03:08.262Z,67.05
2023-03-29T18:05:35.878Z,66.58
2023-03-29T18:08:02.918Z,66.98
2023-03-29T18:10:29.968Z,66.93
2023-03-29T18:12:58.997Z,66.82
2023-03-29T18:15:27.906Z,67.44
2023-03-29T18:17:54.561Z,67.19
2023-03-29T18:20:21.195Z,66.83
2023-03-29T18:22:47.861Z,68.33
2023-03-29T18:25:18.334Z,68.30
2023-03-29T18:27:47.129Z,67.79
2023-03-29T18:30:16.697Z,68.23
2023-03-29T18:32:43.413Z,68.77
2023-03-29T18:35:10.194Z,68.90
2023-03-29T18:37:36.904Z,69.07
2023-03-29T18:40:07.827Z,70.06
2023-03-29T18:42:34.445Z,69.13
2023-03-29T18:45:01.116Z,68.41
2023-03-29T18:47:27.953Z,67.64
2023-03-29T18:49:54.679Z,68.09
2023-03-29T18:52:21.297Z,67.74
2023-03-29T18:54:47.816Z,67.97
2023-03-29T18:57:14.477Z,67.73
2023-03-29T18:59:43.416Z,68.01
2023-03-29T19:02:10.054Z,69.37
2023-03-29T19:04:36.656Z,69.91
2023-03-29T19:07:03.642Z,70.00
2023-03-29T19:09:30.938Z,69.83
2023-03-29T19:11:57.600Z,69.32
2023-03-29T19:14:27.437Z,69.85
2023-03-29T19:16:57.184Z,72.16
2023-03-29T19:19:26.310Z,73.89
2023-03-29T19:21:53.428Z,73.76
2023-03-29T19:24:20.135Z,73.91
2023-03-29T19:26:48.030Z,72.82
2023-03-29T19:29:14.897Z,71.53
2023-03-29T19:31:41.558Z,71.66
2023-03-29T19:34:11.021Z,73.14
2023-03-29T19:36:38.187Z,72.25
2023-03-29T19:39:05.824Z,72.25
2023-03-29T19:41:32.606Z,72.44
2023-03-29T19:43:59.176Z,72.16
2023-03-29T19:46:28.093Z,72.63
2023-03-29T19:48:56.223Z,72.90
2023-03-29T19:51:23.764Z,72.10
2023-03-29T19:53:50.409Z,72.44
2023-03-29T19:56:17.361Z,72.54
2023-03-29T19:58:43.975Z,72.55
2023-03-29T20:01:12.868Z,71.87
2023-03-29T20:03:41.569Z,71.80
2023-03-29T20:06:10.438Z,72.28
2023-03-29T20:08:38.955Z,72.08
2023-03-29T20:11:15.334Z,71.52
2023-03-29T20:13:42.892Z,71.80
2023-03-29T20:16:10.876Z,71.91
2023-03-29T20:18:46.713Z,72.61
2023-03-29T20:21:16.697Z,71.87
2023-03-29T20:23:44.162Z,70.76
2023-03-29T20:26:11.266Z,72.09
2023-03-29T20:28:38.039Z,73.36
2023-03-29T20:31:06.082Z,74.84
2023-03-29T20:33:35.947Z,74.69
2023-03-29T20:36:02.725Z,74.61
2023-03-29T20:38:29.420Z,72.89
2023-03-29T20:40:56.500Z,72.78
2023-03-29T20:43:24.367Z,72.17
2023-03-29T20:45:53.965Z,72.92
2023-03-29T20:48:25.723Z,71.37
2023-03-29T20:50:52.353Z,72.37
2023-03-29T20:53:20.677Z,72.64
2023-03-29T20:55:48.009Z,71.18
2023-03-29T20:58:15.784Z,73.06
2023-03-29T21:00:43.619Z,72.93
2023-03-29T21:03:11.213Z,73.41
2023-03-29T21:05:38.880Z,73.74
2023-03-29T21:08:06.420Z,72.67
2023-03-29T21:10:33.434Z,73.83
2023-03-29T21:13:02.785Z,74.52
2023-03-29T21:15:31.151Z,76.82
2023-03-29T21:17:58.586Z,76.99
2023-03-29T21:20:25.376Z,77.11
2023-03-29T21:22:51.956Z,77.34
2023-03-29T21:25:18.805Z,76.66
2023-03-29T21:27:45.405Z,76.97
2023-03-29T21:30:12.308Z,76.40
2023-03-29T21:32:38.999Z,76.38
2023-03-29T21:35:05.970Z,76.20
2023-03-29T21:37:32.628Z,75.63
2023-03-29T21:39:59.289Z,75.89
2023-03-29T21:42:26.059Z,75.96
2023-03-29T21:44:52.818Z,74.51
2023-03-29T21:47:19.475Z,73.86
2023-03-29T21:49:48.268Z,73.91
2023-03-29T21:52:14.840Z,74.00
2023-03-29T21:54:43.783Z,74.04
2023-03-29T21:57:10.377Z,74.98
2023-03-29T21:59:39.324Z,76.81
2023-03-29T22:02:06.097Z,75.86
2023-03-29T22:04:37.165Z,76.38
2023-03-29T22:07:05.003Z,76.92
2023-03-29T22:09:32.609Z,76.97
2023-03-29T22:11:59.866Z,77.32
2023-03-29T22:14:30.814Z,77.07
2023-03-29T22:16:57.534Z,77.47
2023-03-29T22:19:26.413Z,76.56
2023-03-29T22:21:52.988Z,77.55
2023-03-29T22:24:19.605Z,77.33
2023-03-29T22:26:46.438Z,76.37
2023-03-29T22:29:13.216Z,76.80
2023-03-29T22:31:40.012Z,76.55
2023-03-29T22:34:07.036Z,76.87
2023-03-29T22:36:33.795Z,77.03
2023-03-29T22:39:00.759Z,77.11
2023-03-29T22:41:28.199Z,77.13
2023-03-29T22:43:56.096Z,77.96
2023-03-29T22:46:23.143Z,77.77
2023-03-29T22:48:49.877Z,78.85
2023-03-29T22:51:16.928Z,78.34
2023-03-29T22:53:43.629Z,78.46
2023-03-29T22:56:10.501Z,77.41
2023-03-29T22:58:37.753Z,78.11
2023-03-29T23:01:07.561Z,78.08
2023-03-29T23:03:34.492Z,77.90
2023-03-29T23:06:06.563Z,78.37
2023-03-29T23:08:33.837Z,80.55
2023-03-29T23:11:00.673Z,81.14
2023-03-29T23:13:29.128Z,79.86
2023-03-29T23:15:58.059Z,79.41
2023-03-29T23:18:25.048Z,81.25
2023-03-29T23:20:53.192Z,79.09
2023-03-29T23:23:20.552Z,80.34
2023-03-29T23:25:48.292Z,79.63
2023-03-29T23:28:16.714Z,77.70
2023-03-29T23:30:43.518Z,78.93
2023-03-29T23:33:10.577Z,78.87
2023-03-29T23:35:37.629Z,78.66
2023-03-29T23:38:05.588Z,78.98
2023-03-29T23:40:33.378Z,81.04
2023-03-29T23:43:00.240Z,80.93
2023-03-29T23:45:28.119Z,80.91
2023-03-29T23:47:55.303Z,79.22
2023-03-29T23:50:22.679Z,77.91
2023-03-29T23:52:51.722Z,80.20
2023-03-29T23:55:20.612Z,78.98
2023-03-29T23:57:52.404Z,79.41
